Terminal Aerodrome Forecast
Issued by NWS

Home | Current Version | Previous Version | Text Only | Print | Product List | Glossary On
Versions: 1 2 3 4 5 6 7 8 9 10 11 12 13
000
FTUS44 KLZK 302300
TAFBPK
TAF
KBPK 302334Z 3100/3124 VRB02KT P6SM FEW250
     FM310700 13002KT P6SM OVC120
     FM311500 14005KT P6SM BKN080 OVC100=

USA.gov is the U.S. government's official web portal to all federal, state and local government web resources and services.